createdAt,value
2019-02-03T00:00:28.125Z,41.20
2019-02-03T00:01:05.453Z,35.85
2019-02-03T00:01:40.822Z,46.18
2019-02-03T00:02:15.681Z,41.85
2019-02-03T00:02:50.329Z,41.20
2019-02-03T00:03:24.924Z,45.50
2019-02-03T00:03:59.536Z,43.45
2019-02-03T00:04:34.108Z,45.28
2019-02-03T00:05:09.174Z,46.90
2019-02-03T00:05:43.680Z,42.85
2019-02-03T00:06:18.268Z,47.62
2019-02-03T00:07:03.021Z,45.17
2019-02-03T00:07:29.157Z,43.70
2019-02-03T00:08:03.762Z,48.33
2019-02-03T00:08:38.340Z,43.33
2019-02-03T00:09:15.798Z,38.83
2019-02-03T00:09:50.301Z,44.35
2019-02-03T00:10:24.979Z,40.38
2019-02-03T00:10:59.682Z,45.50
2019-02-03T00:11:34.323Z,45.38
2019-02-03T00:12:09.196Z,47.83
2019-02-03T00:12:44.120Z,41.37
2019-02-03T00:13:18.686Z,38.98
2019-02-03T00:13:53.638Z,45.50
2019-02-03T00:14:28.249Z,43.33
2019-02-03T00:15:04.673Z,42.43
2019-02-03T00:15:39.251Z,44.42
2019-02-03T00:16:14.135Z,42.62
2019-02-03T00:16:48.716Z,42.55
2019-02-03T00:17:23.272Z,49.30
2019-02-03T00:18:00.106Z,47.90
2019-02-03T00:18:34.716Z,41.55
2019-02-03T00:19:09.289Z,42.13
2019-02-03T00:19:43.851Z,47.17
2019-02-03T00:20:18.381Z,45.92
2019-02-03T00:20:52.890Z,38.20
2019-02-03T00:21:28.078Z,39.40
2019-02-03T00:22:05.501Z,43.45
2019-02-03T00:22:39.180Z,49.38
2019-02-03T00:23:13.689Z,48.85
2019-02-03T00:23:48.200Z,40.00
2019-02-03T00:24:22.722Z,47.00
2019-02-03T00:24:57.390Z,43.95
2019-02-03T00:25:32.084Z,40.88
2019-02-03T00:26:06.625Z,40.65
2019-02-03T00:26:41.310Z,44.18
2019-02-03T00:27:15.905Z,42.73
2019-02-03T00:27:50.424Z,36.80
2019-02-03T00:28:24.988Z,40.50
2019-02-03T00:28:59.501Z,40.88
2019-02-03T00:29:34.094Z,39.35
2019-02-03T00:30:12.050Z,45.45
2019-02-03T00:30:46.630Z,42.78
2019-02-03T00:31:21.200Z,41.18
2019-02-03T00:31:56.177Z,43.13
2019-02-03T00:32:30.757Z,41.28
2019-02-03T00:33:05.402Z,41.80
2019-02-03T00:33:39.947Z,41.83
2019-02-03T00:34:14.612Z,38.10
2019-02-03T00:34:49.129Z,44.50
2019-02-03T00:35:23.746Z,44.42
2019-02-03T00:35:58.259Z,42.33
2019-02-03T00:36:32.845Z,35.90
2019-02-03T00:37:15.392Z,39.08
2019-02-03T00:37:43.643Z,40.12
2019-02-03T00:38:23.159Z,41.33
2019-02-03T00:38:54.539Z,39.60
2019-02-03T00:39:29.150Z,49.18
2019-02-03T00:40:07.146Z,46.48
2019-02-03T00:40:41.722Z,44.80
2019-02-03T00:41:16.633Z,38.25
2019-02-03T00:41:51.177Z,39.60
2019-02-03T00:42:26.045Z,38.15
2019-02-03T00:43:00.551Z,40.17
2019-02-03T00:43:35.244Z,42.38
2019-02-03T00:44:09.847Z,41.40
2019-02-03T00:44:44.516Z,43.17
2019-02-03T00:45:19.093Z,43.33
2019-02-03T00:45:53.840Z,41.98
2019-02-03T00:46:28.378Z,40.60
2019-02-03T00:47:02.953Z,39.63
2019-02-03T00:47:37.519Z,43.78
2019-02-03T00:48:12.041Z,46.18
2019-02-03T00:48:46.669Z,42.05
2019-02-03T00:49:21.262Z,39.35
2019-02-03T00:49:55.811Z,44.60
2019-02-03T00:50:30.382Z,36.05
2019-02-03T00:51:05.737Z,37.75
2019-02-03T00:51:40.250Z,40.92
2019-02-03T00:52:14.847Z,37.33
2019-02-03T00:52:49.429Z,37.83
2019-02-03T00:53:24.039Z,44.73
2019-02-03T00:53:58.920Z,39.98
2019-02-03T00:54:33.506Z,40.52
2019-02-03T00:55:11.515Z,41.90
2019-02-03T00:55:46.105Z,36.03
2019-02-03T00:56:20.685Z,42.23
2019-02-03T00:56:55.273Z,40.08
2019-02-03T00:57:32.325Z,36.38
2019-02-03T00:58:06.436Z,38.83
2019-02-03T00:58:41.031Z,41.63
2019-02-03T00:59:15.832Z,38.55
2019-02-03T00:59:50.393Z,40.05
2019-02-03T01:00:25.249Z,35.60
2019-02-03T01:00:59.905Z,39.58
2019-02-03T01:01:34.546Z,34.53
2019-02-03T01:02:09.121Z,31.37
2019-02-03T01:02:43.903Z,42.27
2019-02-03T01:03:18.642Z,33.78
2019-02-03T01:03:53.640Z,35.88
2019-02-03T01:04:28.212Z,35.15
2019-02-03T01:05:02.926Z,36.70
2019-02-03T01:05:37.564Z,35.00
2019-02-03T01:06:12.443Z,34.00
2019-02-03T01:06:48.900Z,32.23
2019-02-03T01:07:27.942Z,33.95
2019-02-03T01:08:03.395Z,39.20
2019-02-03T01:08:38.334Z,34.85
2019-02-03T01:09:13.287Z,36.55
2019-02-03T01:09:47.865Z,32.93
2019-02-03T01:10:24.155Z,32.35
2019-02-03T01:10:58.678Z,40.67
2019-02-03T01:11:33.185Z,34.40
2019-02-03T01:12:07.968Z,35.33
2019-02-03T01:12:42.910Z,34.35
2019-02-03T01:13:17.586Z,34.13
2019-02-03T01:13:52.254Z,37.48
2019-02-03T01:14:26.828Z,35.43
2019-02-03T01:15:01.471Z,38.55
2019-02-03T01:15:36.128Z,30.20
2019-02-03T01:16:10.713Z,41.53
2019-02-03T01:16:45.326Z,36.65
2019-02-03T01:17:20.084Z,38.60
2019-02-03T01:17:54.786Z,34.18
2019-02-03T01:18:29.299Z,41.45
2019-02-03T01:19:03.885Z,39.98
2019-02-03T01:19:38.463Z,32.65
2019-02-03T01:20:15.207Z,32.35
2019-02-03T01:20:49.853Z,35.20
2019-02-03T01:21:24.459Z,30.70
2019-02-03T01:21:59.357Z,33.25
2019-02-03T01:22:33.857Z,41.08
2019-02-03T01:23:08.575Z,31.68
2019-02-03T01:23:43.107Z,32.65
2019-02-03T01:24:17.835Z,34.43
2019-02-03T01:24:52.442Z,30.50
2019-02-03T01:25:27.103Z,32.93
2019-02-03T01:26:02.944Z,31.93
2019-02-03T01:26:37.474Z,36.63
2019-02-03T01:27:11.983Z,36.03
2019-02-03T01:27:46.611Z,35.75
2019-02-03T01:28:21.179Z,38.28
2019-02-03T01:28:56.019Z,32.80
2019-02-03T01:29:30.603Z,28.42
2019-02-03T01:30:08.190Z,33.50
2019-02-03T01:30:42.808Z,36.77
2019-02-03T01:31:17.387Z,30.35
2019-02-03T01:31:52.069Z,36.00
2019-02-03T01:32:26.711Z,36.90
2019-02-03T01:33:01.338Z,40.98
2019-02-03T01:33:35.918Z,33.00
2019-02-03T01:34:10.581Z,39.90
2019-02-03T01:34:45.189Z,38.60
2019-02-03T01:35:20.517Z,41.30
2019-02-03T01:35:55.070Z,35.90
2019-02-03T01:36:29.616Z,32.53
2019-02-03T01:37:04.361Z,37.35
2019-02-03T01:37:40.715Z,39.40
2019-02-03T01:38:15.164Z,32.45
2019-02-03T01:38:49.817Z,39.35
2019-02-03T01:39:24.716Z,39.45
2019-02-03T01:39:59.371Z,34.43
2019-02-03T01:40:34.463Z,40.12
2019-02-03T01:41:09.281Z,41.58
2019-02-03T01:41:45.413Z,32.48
2019-02-03T01:42:20.011Z,40.08
2019-02-03T01:42:54.561Z,43.42
2019-02-03T01:43:29.162Z,34.35
2019-02-03T01:44:03.846Z,41.88
2019-02-03T01:44:38.627Z,39.67
2019-02-03T01:45:21.256Z,40.20
2019-02-03T01:45:56.017Z,38.42
2019-02-03T01:46:30.684Z,37.08
2019-02-03T01:47:05.224Z,37.08
2019-02-03T01:47:39.809Z,36.50
2019-02-03T01:48:14.405Z,38.38
2019-02-03T01:48:48.983Z,36.58
2019-02-03T01:49:23.577Z,34.30
2019-02-03T01:49:58.223Z,34.83
2019-02-03T01:50:32.800Z,33.95
2019-02-03T01:51:07.389Z,35.13
2019-02-03T01:51:41.902Z,31.37
2019-02-03T01:52:16.514Z,37.08
2019-02-03T01:52:51.091Z,33.83
2019-02-03T01:53:25.687Z,39.78
2019-02-03T01:54:00.821Z,33.05
2019-02-03T01:54:35.404Z,39.25
2019-02-03T01:55:15.653Z,36.17
2019-02-03T01:55:50.249Z,41.05
2019-02-03T01:56:24.842Z,38.10
2019-02-03T01:56:59.412Z,37.75
2019-02-03T01:57:33.925Z,34.15
2019-02-03T01:58:08.521Z,39.35
2019-02-03T01:58:43.027Z,34.43
2019-02-03T01:59:17.689Z,43.00
2019-02-03T01:59:52.662Z,36.83
2019-02-03T02:00:29.573Z,35.28
2019-02-03T02:01:05.280Z,38.50
2019-02-03T02:01:39.796Z,41.48
2019-02-03T02:02:14.496Z,38.35
2019-02-03T02:02:49.204Z,40.43
2019-02-03T02:03:24.135Z,37.17
2019-02-03T02:03:58.677Z,41.13
2019-02-03T02:04:33.186Z,38.65
2019-02-03T02:05:08.817Z,34.80
2019-02-03T02:05:43.324Z,42.10
2019-02-03T02:06:17.838Z,41.92
2019-02-03T02:06:53.094Z,44.20
2019-02-03T02:07:27.803Z,46.90
2019-02-03T02:08:04.970Z,38.00
2019-02-03T02:08:38.596Z,42.05
2019-02-03T02:09:13.105Z,39.18
2019-02-03T02:09:47.692Z,46.30
2019-02-03T02:10:28.797Z,38.53
2019-02-03T02:11:03.348Z,35.95
2019-02-03T02:11:37.919Z,42.30
2019-02-03T02:12:12.498Z,39.18
2019-02-03T02:12:47.121Z,43.08
2019-02-03T02:13:21.824Z,40.90
2019-02-03T02:13:56.496Z,39.10
2019-02-03T02:14:31.155Z,40.70
2019-02-03T02:15:08.858Z,37.28
2019-02-03T02:15:43.439Z,35.38
2019-02-03T02:16:18.019Z,34.20
2019-02-03T02:16:52.716Z,37.25
2019-02-03T02:17:27.289Z,35.90
2019-02-03T02:18:01.868Z,44.93
2019-02-03T02:18:36.384Z,42.80
2019-02-03T02:19:10.959Z,39.67
2019-02-03T02:19:45.546Z,33.38
2019-02-03T02:20:22.743Z,40.63
2019-02-03T02:20:57.435Z,38.63
2019-02-03T02:21:32.132Z,39.23
2019-02-03T02:22:06.708Z,43.75
2019-02-03T02:22:41.303Z,37.65
2019-02-03T02:23:15.972Z,37.40
2019-02-03T02:23:50.573Z,42.73
2019-02-03T02:24:25.263Z,40.90
2019-02-03T02:25:00.325Z,38.78
2019-02-03T02:25:35.058Z,37.42
2019-02-03T02:26:10.013Z,33.98
2019-02-03T02:26:44.528Z,41.02
2019-02-03T02:27:19.580Z,40.10
2019-02-03T02:27:54.182Z,32.40
2019-02-03T02:28:29.090Z,38.00
2019-02-03T02:29:03.727Z,32.88
2019-02-03T02:29:38.600Z,35.48
2019-02-03T02:30:21.525Z,35.10
2019-02-03T02:30:55.392Z,36.35
2019-02-03T02:31:32.366Z,36.80
2019-02-03T02:32:06.327Z,40.67
2019-02-03T02:32:40.912Z,37.13
2019-02-03T02:33:16.169Z,33.50
2019-02-03T02:33:50.745Z,35.38
2019-02-03T02:34:25.334Z,38.02
2019-02-03T02:34:59.967Z,36.70
2019-02-03T02:35:34.478Z,36.30
2019-02-03T02:36:09.422Z,40.38
2019-02-03T02:36:44.100Z,36.03
2019-02-03T02:37:18.681Z,39.95
2019-02-03T02:38:05.983Z,37.78
2019-02-03T02:38:29.522Z,38.02
2019-02-03T02:39:06.629Z,38.83
2019-02-03T02:39:41.292Z,38.13
2019-02-03T02:40:21.017Z,35.35
2019-02-03T02:40:55.666Z,35.45
2019-02-03T02:41:30.247Z,34.23
2019-02-03T02:42:05.180Z,32.80
2019-02-03T02:42:39.755Z,38.78
2019-02-03T02:43:15.569Z,38.90
2019-02-03T02:43:50.189Z,31.95
2019-02-03T02:44:25.167Z,41.45
2019-02-03T02:44:59.720Z,32.60
2019-02-03T02:45:34.793Z,38.58
2019-02-03T02:46:09.457Z,35.55
2019-02-03T02:46:44.442Z,33.63
2019-02-03T02:47:19.017Z,38.75
2019-02-03T02:47:54.494Z,38.88
2019-02-03T02:48:29.061Z,38.15
2019-02-03T02:49:05.407Z,31.35
2019-02-03T02:49:40.028Z,37.00
2019-02-03T02:50:29.451Z,36.15
2019-02-03T02:51:04.103Z,35.33
2019-02-03T02:51:38.703Z,39.65
2019-02-03T02:52:13.268Z,33.33
2019-02-03T02:52:47.862Z,38.63
2019-02-03T02:53:22.370Z,33.85
2019-02-03T02:53:58.909Z,32.95
2019-02-03T02:54:33.192Z,41.65
2019-02-03T02:55:09.396Z,37.55
2019-02-03T02:55:44.072Z,34.55
2019-02-03T02:56:18.701Z,37.53
2019-02-03T02:56:53.215Z,35.40
2019-02-03T02:57:27.801Z,41.20
2019-02-03T02:58:02.821Z,38.53
2019-02-03T02:58:37.402Z,38.55
2019-02-03T02:59:11.999Z,33.90
2019-02-03T02:59:46.520Z,39.60
2019-02-03T03:00:25.469Z,39.50
2019-02-03T03:01:00.036Z,35.60
2019-02-03T03:01:41.062Z,40.58
2019-02-03T03:02:15.897Z,37.58
2019-02-03T03:02:50.473Z,34.88
2019-02-03T03:03:25.068Z,33.58
2019-02-03T03:03:59.576Z,37.10
2019-02-03T03:04:34.167Z,36.30
2019-02-03T03:05:09.981Z,33.28
2019-02-03T03:05:45.188Z,40.23
2019-02-03T03:06:19.828Z,38.02
2019-02-03T03:06:54.429Z,34.95
2019-02-03T03:07:29.076Z,42.93
2019-02-03T03:08:04.001Z,37.15
2019-02-03T03:08:38.732Z,39.40
2019-02-03T03:09:13.301Z,35.30
2019-02-03T03:09:48.155Z,35.63
2019-02-03T03:10:22.876Z,41.13
2019-02-03T03:10:57.349Z,33.95
2019-02-03T03:11:34.699Z,33.05
2019-02-03T03:12:08.303Z,34.65
2019-02-03T03:12:42.869Z,35.28
2019-02-03T03:13:18.140Z,38.38
2019-02-03T03:13:52.766Z,42.05
2019-02-03T03:14:27.326Z,37.15
2019-02-03T03:15:01.978Z,34.45
2019-02-03T03:15:36.581Z,39.88
2019-02-03T03:16:11.142Z,39.05
2019-02-03T03:16:45.654Z,33.78
2019-02-03T03:17:20.228Z,34.10
2019-02-03T03:17:54.774Z,28.30
2019-02-03T03:18:29.386Z,33.98
2019-02-03T03:19:03.925Z,32.53
2019-02-03T03:19:38.535Z,34.45
2019-02-03T03:20:18.270Z,34.40
2019-02-03T03:20:52.842Z,34.25
2019-02-03T03:21:33.318Z,33.48
2019-02-03T03:22:08.195Z,36.00
2019-02-03T03:22:42.868Z,31.62
2019-02-03T03:23:17.993Z,33.00
2019-02-03T03:23:52.718Z,34.15
2019-02-03T03:24:27.604Z,34.43
2019-02-03T03:25:02.295Z,37.85
2019-02-03T03:25:45.529Z,31.77
2019-02-03T03:26:20.223Z,39.30
2019-02-03T03:26:54.803Z,32.75
2019-02-03T03:27:29.582Z,28.57
2019-02-03T03:28:04.322Z,29.87
2019-02-03T03:28:41.950Z,33.70
2019-02-03T03:29:16.538Z,34.75
2019-02-03T03:29:51.130Z,39.85
2019-02-03T03:30:27.557Z,40.67
2019-02-03T03:31:02.068Z,39.23
2019-02-03T03:31:36.651Z,34.90
2019-02-03T03:32:11.553Z,37.42
2019-02-03T03:32:46.138Z,33.00
2019-02-03T03:33:20.891Z,36.53
2019-02-03T03:33:55.894Z,35.58
2019-02-03T03:34:30.514Z,36.20
2019-02-03T03:35:06.071Z,35.10
2019-02-03T03:35:40.854Z,42.58
2019-02-03T03:36:15.432Z,34.33
2019-02-03T03:36:50.118Z,35.73
2019-02-03T03:37:24.700Z,37.85
2019-02-03T03:37:59.213Z,31.30
2019-02-03T03:38:33.783Z,35.03
2019-02-03T03:39:08.938Z,36.58
2019-02-03T03:39:43.445Z,31.07
2019-02-03T03:40:26.449Z,36.50
2019-02-03T03:41:01.100Z,35.85
2019-02-03T03:41:35.725Z,32.45
2019-02-03T03:42:10.299Z,34.58
2019-02-03T03:42:44.919Z,34.60
2019-02-03T03:43:22.407Z,33.60
2019-02-03T03:43:57.090Z,34.53
2019-02-03T03:44:31.640Z,35.28
2019-02-03T03:45:08.309Z,32.65
2019-02-03T03:45:42.887Z,31.55
2019-02-03T03:46:17.478Z,34.43
2019-02-03T03:46:52.069Z,34.65
2019-02-03T03:47:26.652Z,36.05
2019-02-03T03:48:01.418Z,33.50
2019-02-03T03:48:36.002Z,33.73
2019-02-03T03:49:10.671Z,37.98
2019-02-03T03:49:45.433Z,34.35
2019-02-03T03:50:20.283Z,40.05
2019-02-03T03:50:54.885Z,31.42
2019-02-03T03:51:29.463Z,37.85
2019-02-03T03:52:04.324Z,33.85
2019-02-03T03:52:39.528Z,34.35
2019-02-03T03:53:14.170Z,37.08
2019-02-03T03:53:48.755Z,36.08
2019-02-03T03:54:23.272Z,35.58
2019-02-03T03:54:58.182Z,32.25
2019-02-03T03:55:32.821Z,37.35
2019-02-03T03:56:07.388Z,31.82
2019-02-03T03:56:41.896Z,38.10
2019-02-03T03:57:16.526Z,30.57
2019-02-03T03:57:51.279Z,33.18
2019-02-03T03:58:26.960Z,31.07
2019-02-03T03:59:01.548Z,33.75
2019-02-03T03:59:38.010Z,40.08
2019-02-03T04:00:18.250Z,31.68
2019-02-03T04:00:53.231Z,32.88
2019-02-03T04:01:27.816Z,30.68
2019-02-03T04:02:02.866Z,35.48
2019-02-03T04:02:37.485Z,34.98
2019-02-03T04:03:12.463Z,30.02
2019-02-03T04:03:48.837Z,32.78
2019-02-03T04:04:23.335Z,27.45
2019-02-03T04:04:57.930Z,32.33
2019-02-03T04:05:32.945Z,32.03
2019-02-03T04:06:07.588Z,28.75
2019-02-03T04:06:42.169Z,31.15
2019-02-03T04:07:16.768Z,35.55
2019-02-03T04:07:51.566Z,30.55
2019-02-03T04:08:26.135Z,32.83
2019-02-03T04:09:00.812Z,29.37
2019-02-03T04:09:35.403Z,31.25
2019-02-03T04:10:12.722Z,28.50
2019-02-03T04:10:47.318Z,36.65
2019-02-03T04:11:21.970Z,29.25
2019-02-03T04:11:56.536Z,32.80
2019-02-03T04:12:31.041Z,29.65
2019-02-03T04:13:05.806Z,32.25
2019-02-03T04:13:46.312Z,33.15
2019-02-03T04:14:20.991Z,33.58
2019-02-03T04:14:55.573Z,31.60
2019-02-03T04:15:30.151Z,27.13
2019-02-03T04:16:05.373Z,32.20
2019-02-03T04:16:39.962Z,31.77
2019-02-03T04:17:14.532Z,30.02
2019-02-03T04:17:49.653Z,32.15
2019-02-03T04:18:24.335Z,31.30
2019-02-03T04:18:58.976Z,30.02
2019-02-03T04:19:33.552Z,30.17
2019-02-03T04:20:11.195Z,33.23
2019-02-03T04:20:45.787Z,31.00
2019-02-03T04:21:20.356Z,33.58
2019-02-03T04:21:54.974Z,30.85
2019-02-03T04:22:29.476Z,32.10
2019-02-03T04:23:04.342Z,28.45
2019-02-03T04:23:38.939Z,29.67
2019-02-03T04:24:13.490Z,27.27
2019-02-03T04:24:48.010Z,29.12
2019-02-03T04:25:22.577Z,33.18
2019-02-03T04:25:57.166Z,33.38
2019-02-03T04:26:31.863Z,31.23
2019-02-03T04:27:06.375Z,31.00
2019-02-03T04:27:41.026Z,33.15
2019-02-03T04:28:15.654Z,29.12
2019-02-03T04:28:50.237Z,34.45
2019-02-03T04:29:24.853Z,30.40
2019-02-03T04:29:59.404Z,32.63
2019-02-03T04:30:34.754Z,33.55
2019-02-03T04:31:10.508Z,30.60
2019-02-03T04:31:45.655Z,30.17
2019-02-03T04:32:20.362Z,32.00
2019-02-03T04:32:56.468Z,30.65
2019-02-03T04:33:31.037Z,31.42
2019-02-03T04:34:05.840Z,29.27
2019-02-03T04:34:40.363Z,31.30
2019-02-03T04:35:15.070Z,32.67
2019-02-03T04:35:49.644Z,35.55
2019-02-03T04:36:24.284Z,26.30
2019-02-03T04:36:59.006Z,30.15
2019-02-03T04:37:33.604Z,30.90
2019-02-03T04:38:08.184Z,29.60
2019-02-03T04:38:42.781Z,34.80
2019-02-03T04:39:17.355Z,30.45
2019-02-03T04:39:51.929Z,31.80
2019-02-03T04:40:26.517Z,30.80
2019-02-03T04:41:01.265Z,31.70
2019-02-03T04:41:35.782Z,28.23
2019-02-03T04:42:10.366Z,35.00
2019-02-03T04:42:45.038Z,31.60
2019-02-03T04:43:19.731Z,33.28
2019-02-03T04:43:54.328Z,32.95
2019-02-03T04:44:28.911Z,33.05
2019-02-03T04:45:03.835Z,27.62
2019-02-03T04:45:40.056Z,28.67
2019-02-03T04:46:14.932Z,34.80
2019-02-03T04:46:49.482Z,30.08
2019-02-03T04:47:24.353Z,29.48
2019-02-03T04:47:58.966Z,30.77
2019-02-03T04:48:33.732Z,30.12
2019-02-03T04:49:08.360Z,32.63
2019-02-03T04:49:42.956Z,31.15
2019-02-03T04:50:19.547Z,31.48
2019-02-03T04:50:54.210Z,28.55
2019-02-03T04:51:28.805Z,28.35
2019-02-03T04:52:03.375Z,27.93
2019-02-03T04:52:38.117Z,28.98
2019-02-03T04:53:12.690Z,27.62
2019-02-03T04:53:47.265Z,28.77
2019-02-03T04:54:21.840Z,33.53
2019-02-03T04:54:56.435Z,32.55
2019-02-03T04:55:31.019Z,23.80
2019-02-03T04:56:05.606Z,29.37
2019-02-03T04:56:40.218Z,33.38
2019-02-03T04:57:14.787Z,27.55
2019-02-03T04:57:49.537Z,34.90
2019-02-03T04:58:24.124Z,29.52
2019-02-03T04:59:01.560Z,31.60
2019-02-03T04:59:36.129Z,26.87
2019-02-03T05:00:16.345Z,31.45
2019-02-03T05:00:50.912Z,28.62
2019-02-03T05:01:25.791Z,32.65
2019-02-03T05:02:00.427Z,28.50
2019-02-03T05:02:35.452Z,25.68
2019-02-03T05:03:10.056Z,29.87
2019-02-03T05:03:45.425Z,28.40
2019-02-03T05:04:20.179Z,25.40
2019-02-03T05:04:55.165Z,34.67
2019-02-03T05:05:30.208Z,29.27
2019-02-03T05:06:04.760Z,30.23
2019-02-03T05:06:39.346Z,26.45
2019-02-03T05:07:13.964Z,30.92
2019-02-03T05:07:48.837Z,28.12
2019-02-03T05:08:24.570Z,29.65
2019-02-03T05:09:10.671Z,31.70
2019-02-03T05:09:35.569Z,29.20
2019-02-03T05:10:12.165Z,28.77
2019-02-03T05:10:46.783Z,29.65
2019-02-03T05:11:21.297Z,27.20
2019-02-03T05:11:55.886Z,32.85
2019-02-03T05:12:30.400Z,30.02
2019-02-03T05:13:04.978Z,30.88
2019-02-03T05:13:39.517Z,32.10
2019-02-03T05:14:14.066Z,26.82
2019-02-03T05:14:48.657Z,28.45
2019-02-03T05:15:23.955Z,27.50
2019-02-03T05:15:58.517Z,30.95
2019-02-03T05:16:33.269Z,26.02
2019-02-03T05:17:08.464Z,30.00
2019-02-03T05:17:43.168Z,27.70
2019-02-03T05:18:17.783Z,29.05
2019-02-03T05:18:52.383Z,30.05
2019-02-03T05:19:26.985Z,28.75
2019-02-03T05:20:02.287Z,29.55
2019-02-03T05:20:37.083Z,29.30
2019-02-03T05:21:11.671Z,27.60
2019-02-03T05:21:46.240Z,24.55
2019-02-03T05:22:20.925Z,27.80
2019-02-03T05:22:55.508Z,30.30
2019-02-03T05:23:30.105Z,30.12
2019-02-03T05:24:04.818Z,26.50
2019-02-03T05:24:39.455Z,27.42
2019-02-03T05:25:14.880Z,29.05
2019-02-03T05:25:49.467Z,26.85
2019-02-03T05:26:24.023Z,24.90
2019-02-03T05:26:58.625Z,28.27
2019-02-03T05:27:33.204Z,26.33
2019-02-03T05:28:07.805Z,26.48
2019-02-03T05:28:42.368Z,25.10
2019-02-03T05:29:17.036Z,24.25
2019-02-03T05:29:51.621Z,25.20
2019-02-03T05:30:31.843Z,27.13
2019-02-03T05:31:06.760Z,30.23
2019-02-03T05:31:41.405Z,24.87
2019-02-03T05:32:16.363Z,26.20
2019-02-03T05:32:50.876Z,28.35
2019-02-03T05:33:25.772Z,27.60
2019-02-03T05:34:00.386Z,25.55
2019-02-03T05:34:35.277Z,25.82
2019-02-03T05:35:09.972Z,21.93
2019-02-03T05:35:44.972Z,23.73
2019-02-03T05:36:19.728Z,27.37
2019-02-03T05:36:54.303Z,22.73
2019-02-03T05:37:28.828Z,23.92
2019-02-03T05:38:03.412Z,22.70
2019-02-03T05:38:38.067Z,23.92
2019-02-03T05:39:24.354Z,24.20
2019-02-03T05:39:48.796Z,26.33
2019-02-03T05:40:23.566Z,24.35
2019-02-03T05:40:58.144Z,24.47
2019-02-03T05:41:32.718Z,21.93
2019-02-03T05:42:07.335Z,22.85
2019-02-03T05:42:42.010Z,24.60
2019-02-03T05:43:16.598Z,22.32
2019-02-03T05:43:51.111Z,22.48
2019-02-03T05:44:25.627Z,25.70
2019-02-03T05:45:00.365Z,21.68
2019-02-03T05:45:35.234Z,22.35
2019-02-03T05:46:09.831Z,22.95
2019-02-03T05:46:44.483Z,21.57
2019-02-03T05:47:19.243Z,20.05
2019-02-03T05:47:53.785Z,22.85
2019-02-03T05:48:30.177Z,19.10
2019-02-03T05:49:04.926Z,17.27
2019-02-03T05:49:39.548Z,23.10
2019-02-03T05:50:16.714Z,21.17
2019-02-03T05:50:51.206Z,20.08
2019-02-03T05:51:25.954Z,17.30
2019-02-03T05:52:00.511Z,20.37
2019-02-03T05:52:35.010Z,18.30
2019-02-03T05:53:09.530Z,21.12
2019-02-03T05:53:44.244Z,24.75
2019-02-03T05:54:18.887Z,21.10
2019-02-03T05:54:53.395Z,19.70
2019-02-03T05:55:28.048Z,17.62
2019-02-03T05:56:02.563Z,23.40
2019-02-03T05:56:37.257Z,19.70
2019-02-03T05:57:11.839Z,19.30
2019-02-03T05:57:48.063Z,20.80
2019-02-03T05:58:22.568Z,19.80
2019-02-03T05:58:57.076Z,20.45
2019-02-03T05:59:31.882Z,17.92
2019-02-03T06:00:12.402Z,16.60
2019-02-03T06:00:47.323Z,18.75
2019-02-03T06:01:21.901Z,14.83
2019-02-03T06:02:04.222Z,18.87
2019-02-03T06:02:38.967Z,17.90
2019-02-03T06:03:13.554Z,17.48
2019-02-03T06:03:48.130Z,15.20
2019-02-03T06:04:22.784Z,18.87
2019-02-03T06:04:57.365Z,18.07
2019-02-03T06:05:31.981Z,15.03
2019-02-03T06:06:06.627Z,18.37
2019-02-03T06:06:41.197Z,15.75
2019-02-03T06:07:15.834Z,17.95
2019-02-03T06:07:50.411Z,15.32
2019-02-03T06:08:25.051Z,16.20
2019-02-03T06:08:59.634Z,15.23
2019-02-03T06:09:36.667Z,18.00
2019-02-03T06:10:16.285Z,16.75
2019-02-03T06:10:50.840Z,16.02
2019-02-03T06:11:25.349Z,19.32
2019-02-03T06:12:00.025Z,19.77
2019-02-03T06:12:34.550Z,19.40
2019-02-03T06:13:09.050Z,15.85
2019-02-03T06:13:43.744Z,16.77
2019-02-03T06:14:18.308Z,19.55
2019-02-03T06:14:52.829Z,15.72
2019-02-03T06:15:27.441Z,18.48
2019-02-03T06:16:02.003Z,16.73
2019-02-03T06:16:36.638Z,19.45
2019-02-03T06:17:11.224Z,18.40
2019-02-03T06:17:45.868Z,15.38
2019-02-03T06:18:20.442Z,20.92
2019-02-03T06:18:55.061Z,17.73
2019-02-03T06:19:29.739Z,17.85
2019-02-03T06:20:07.338Z,17.75
2019-02-03T06:20:41.930Z,15.88
2019-02-03T06:21:16.515Z,16.25
2019-02-03T06:21:51.014Z,13.05
2019-02-03T06:22:25.594Z,17.65
2019-02-03T06:23:00.873Z,15.20
2019-02-03T06:23:35.449Z,15.78
2019-02-03T06:24:10.078Z,15.50
2019-02-03T06:24:45.133Z,14.73
2019-02-03T06:25:19.834Z,15.25
2019-02-03T06:25:54.853Z,21.00
2019-02-03T06:26:29.392Z,18.27
2019-02-03T06:27:04.620Z,16.82
2019-02-03T06:27:39.485Z,15.40
2019-02-03T06:28:14.374Z,17.35
2019-02-03T06:28:48.999Z,16.42
2019-02-03T06:29:25.282Z,14.70
2019-02-03T06:30:00.020Z,13.15
2019-02-03T06:30:40.318Z,17.50
2019-02-03T06:31:15.377Z,13.32
2019-02-03T06:31:51.437Z,14.28
2019-02-03T06:32:26.038Z,15.75
2019-02-03T06:33:02.157Z,16.32
2019-02-03T06:33:36.709Z,15.72
2019-02-03T06:34:11.283Z,15.05
2019-02-03T06:34:45.866Z,16.90
2019-02-03T06:35:20.442Z,13.98
2019-02-03T06:35:55.132Z,15.50
2019-02-03T06:36:29.725Z,14.05
2019-02-03T06:37:04.407Z,13.25
2019-02-03T06:37:39.055Z,17.42
2019-02-03T06:38:13.642Z,14.95
2019-02-03T06:38:48.565Z,18.30
2019-02-03T06:39:23.094Z,13.75
2019-02-03T06:39:57.672Z,15.35
2019-02-03T06:40:32.317Z,14.33
2019-02-03T06:41:06.999Z,13.93
2019-02-03T06:41:41.516Z,12.20
2019-02-03T06:42:16.135Z,15.83
2019-02-03T06:42:50.722Z,12.05
2019-02-03T06:43:25.308Z,12.63
2019-02-03T06:43:59.954Z,14.07
2019-02-03T06:44:34.459Z,13.48
2019-02-03T06:45:27.035Z,13.60
2019-02-03T06:46:19.756Z,15.15
2019-02-03T06:46:55.895Z,13.28
2019-02-03T06:47:30.531Z,14.47
2019-02-03T06:48:05.109Z,11.75
2019-02-03T06:48:39.704Z,13.60
2019-02-03T06:49:15.928Z,12.80
2019-02-03T06:49:50.890Z,12.20
2019-02-03T06:50:25.554Z,11.40
2019-02-03T06:51:00.529Z,13.58
2019-02-03T06:51:35.103Z,12.10
2019-02-03T06:52:10.041Z,12.28
2019-02-03T06:52:44.584Z,14.50
2019-02-03T06:53:19.421Z,12.50
2019-02-03T06:53:55.092Z,10.53
2019-02-03T06:54:29.669Z,11.73
2019-02-03T06:55:08.367Z,13.30
2019-02-03T06:55:44.917Z,13.70
2019-02-03T06:56:19.689Z,13.40
2019-02-03T06:56:54.745Z,11.65
2019-02-03T06:57:29.236Z,13.40
2019-02-03T06:58:03.951Z,15.03
2019-02-03T06:58:38.522Z,14.25
2019-02-03T06:59:13.031Z,15.40
2019-02-03T06:59:50.856Z,14.15
2019-02-03T07:00:23.807Z,13.85
2019-02-03T07:00:59.367Z,14.40
2019-02-03T07:01:33.878Z,13.75
2019-02-03T07:02:08.569Z,12.33
2019-02-03T07:02:43.170Z,12.23
2019-02-03T07:03:17.800Z,10.32
2019-02-03T07:03:52.447Z,12.18
2019-02-03T07:04:27.005Z,13.32
2019-02-03T07:05:01.519Z,10.98
2019-02-03T07:05:36.118Z,11.70
2019-02-03T07:06:10.677Z,13.68
2019-02-03T07:06:45.499Z,13.38
2019-02-03T07:07:20.237Z,13.00
2019-02-03T07:07:54.820Z,12.05
2019-02-03T07:08:29.401Z,10.20
2019-02-03T07:09:05.521Z,13.43
2019-02-03T07:09:40.025Z,11.83
2019-02-03T07:10:14.521Z,12.25
2019-02-03T07:10:49.030Z,11.85
2019-02-03T07:11:23.619Z,9.63
2019-02-03T07:11:58.188Z,10.68
2019-02-03T07:12:32.777Z,11.80
2019-02-03T07:13:07.355Z,12.15
2019-02-03T07:13:42.106Z,9.63
2019-02-03T07:14:16.682Z,11.00
2019-02-03T07:14:51.210Z,11.35
2019-02-03T07:15:25.813Z,11.33
2019-02-03T07:16:00.340Z,10.45
2019-02-03T07:16:41.947Z,10.20
2019-02-03T07:17:11.109Z,13.72
2019-02-03T07:17:45.633Z,13.83
2019-02-03T07:18:20.503Z,12.68
2019-02-03T07:18:55.068Z,13.32
2019-02-03T07:19:29.573Z,11.05
2019-02-03T07:20:12.762Z,9.43
2019-02-03T07:20:47.337Z,12.90
2019-02-03T07:21:21.928Z,11.85
2019-02-03T07:21:56.522Z,11.38
2019-02-03T07:22:31.105Z,13.20
2019-02-03T07:23:05.598Z,10.90
2019-02-03T07:23:40.265Z,10.95
2019-02-03T07:24:14.764Z,12.75
2019-02-03T07:24:49.273Z,11.18
2019-02-03T07:25:23.867Z,10.35
2019-02-03T07:25:58.386Z,11.15
2019-02-03T07:26:33.065Z,10.90
2019-02-03T07:27:07.669Z,13.20
2019-02-03T07:27:42.313Z,12.10
2019-02-03T07:28:16.884Z,11.20
2019-02-03T07:28:51.695Z,11.48
2019-02-03T07:29:26.229Z,13.03
2019-02-03T07:30:00.752Z,9.13
2019-02-03T07:30:35.249Z,10.45
2019-02-03T07:31:10.794Z,11.63
2019-02-03T07:31:45.365Z,9.73